sensor_id;sensor_type;location;lat;lon;timestamp;temperature;humidity
71142;DHT22;58808;59.366;17.970;2022-08-03T00:00:38;17.00;99.90
71142;DHT22;58808;59.366;17.970;2022-08-03T00:03:04;17.10;99.90
71142;DHT22;58808;59.366;17.970;2022-08-03T00:05:30;17.10;99.90
71142;DHT22;58808;59.366;17.970;2022-08-03T00:07:58;17.10;99.90
71142;DHT22;58808;59.366;17.970;2022-08-03T00:10:23;17.10;99.90
71142;DHT22;58808;59.366;17.970;2022-08-03T00:12:49;17.10;99.90
71142;DHT22;58808;59.366;17.970;2022-08-03T00:15:15;17.10;99.90
71142;DHT22;58808;59.366;17.970;2022-08-03T00:17:41;17.10;99.90
71142;DHT22;58808;59.366;17.970;2022-08-03T00:20:06;17.20;99.90
71142;DHT22;58808;59.366;17.970;2022-08-03T00:22:34;17.10;99.90
71142;DHT22;58808;59.366;17.970;2022-08-03T00:25:00;17.10;99.90
71142;DHT22;58808;59.366;17.970;2022-08-03T00:27:25;17.10;99.90
71142;DHT22;58808;59.366;17.970;2022-08-03T00:29:51;17.20;99.90
71142;DHT22;58808;59.366;17.970;2022-08-03T00:32:16;17.20;99.90
71142;DHT22;58808;59.366;17.970;2022-08-03T00:34:42;17.30;99.90
71142;DHT22;58808;59.366;17.970;2022-08-03T00:37:07;17.40;99.90
71142;DHT22;58808;59.366;17.970;2022-08-03T00:39:33;17.20;99.90
71142;DHT22;58808;59.366;17.970;2022-08-03T00:42:03;17.10;99.90
71142;DHT22;58808;59.366;17.970;2022-08-03T00:44:29;17.10;99.90
71142;DHT22;58808;59.366;17.970;2022-08-03T00:46:54;17.10;99.90
71142;DHT22;58808;59.366;17.970;2022-08-03T00:49:20;16.90;99.90
71142;DHT22;58808;59.366;17.970;2022-08-03T00:51:46;16.90;99.90
71142;DHT22;58808;59.366;17.970;2022-08-03T00:54:12;16.90;99.90
71142;DHT22;58808;59.366;17.970;2022-08-03T00:56:38;16.90;99.90
71142;DHT22;58808;59.366;17.970;2022-08-03T00:59:05;16.90;99.90
71142;DHT22;58808;59.366;17.970;2022-08-03T01:01:31;16.80;99.90
71142;DHT22;58808;59.366;17.970;2022-08-03T01:03:59;16.80;99.90
71142;DHT22;58808;59.366;17.970;2022-08-03T01:06:49;16.80;99.90
71142;DHT22;58808;59.366;17.970;2022-08-03T01:09:45;16.70;99.90
71142;DHT22;58808;59.366;17.970;2022-08-03T01:12:36;16.60;99.90
71142;DHT22;58808;59.366;17.970;2022-08-03T01:15:14;16.60;99.90
71142;DHT22;58808;59.366;17.970;2022-08-03T01:20:13;16.70;99.90
71142;DHT22;58808;59.366;17.970;2022-08-03T01:23:02;16.70;99.90
71142;DHT22;58808;59.366;17.970;2022-08-03T01:25:39;16.50;99.90
71142;DHT22;58808;59.366;17.970;2022-08-03T01:31:13;16.40;99.90
71142;DHT22;58808;59.366;17.970;2022-08-03T01:33:47;16.20;99.90
71142;DHT22;58808;59.366;17.970;2022-08-03T01:36:21;16.20;99.90
71142;DHT22;58808;59.366;17.970;2022-08-03T01:38:51;16.20;99.90
71142;DHT22;58808;59.366;17.970;2022-08-03T01:41:20;16.20;99.90
71142;DHT22;58808;59.366;17.970;2022-08-03T01:43:48;16.20;99.90
71142;DHT22;58808;59.366;17.970;2022-08-03T01:46:16;16.20;99.90
71142;DHT22;58808;59.366;17.970;2022-08-03T01:48:44;16.20;99.90
71142;DHT22;58808;59.366;17.970;2022-08-03T01:51:11;16.20;99.90
71142;DHT22;58808;59.366;17.970;2022-08-03T01:53:39;16.20;99.90
71142;DHT22;58808;59.366;17.970;2022-08-03T01:56:07;16.20;99.90
71142;DHT22;58808;59.366;17.970;2022-08-03T01:58:35;16.20;99.90
71142;DHT22;58808;59.366;17.970;2022-08-03T02:01:02;16.30;99.90
71142;DHT22;58808;59.366;17.970;2022-08-03T02:03:31;16.20;99.90
71142;DHT22;58808;59.366;17.970;2022-08-03T02:05:59;16.20;99.90
71142;DHT22;58808;59.366;17.970;2022-08-03T02:08:26;16.30;99.90
71142;DHT22;58808;59.366;17.970;2022-08-03T02:10:54;16.30;99.90
71142;DHT22;58808;59.366;17.970;2022-08-03T02:13:22;16.30;99.90
71142;DHT22;58808;59.366;17.970;2022-08-03T02:15:49;16.40;99.90
71142;DHT22;58808;59.366;17.970;2022-08-03T02:18:20;16.40;99.90
71142;DHT22;58808;59.366;17.970;2022-08-03T02:20:49;16.40;99.90
71142;DHT22;58808;59.366;17.970;2022-08-03T02:23:15;16.40;99.90
71142;DHT22;58808;59.366;17.970;2022-08-03T02:25:46;16.40;99.90
71142;DHT22;58808;59.366;17.970;2022-08-03T02:28:28;16.50;99.90
71142;DHT22;58808;59.366;17.970;2022-08-03T02:30:57;16.50;99.90
71142;DHT22;58808;59.366;17.970;2022-08-03T02:33:47;16.40;99.90
71142;DHT22;58808;59.366;17.970;2022-08-03T02:36:14;16.40;99.90
71142;DHT22;58808;59.366;17.970;2022-08-03T02:38:42;16.40;99.90
71142;DHT22;58808;59.366;17.970;2022-08-03T02:41:15;16.40;99.90
71142;DHT22;58808;59.366;17.970;2022-08-03T02:43:45;16.30;99.90
71142;DHT22;58808;59.366;17.970;2022-08-03T02:46:13;16.20;99.90
71142;DHT22;58808;59.366;17.970;2022-08-03T02:48:42;16.20;99.90
71142;DHT22;58808;59.366;17.970;2022-08-03T02:51:08;16.30;99.90
71142;DHT22;58808;59.366;17.970;2022-08-03T02:53:38;16.20;99.90
71142;DHT22;58808;59.366;17.970;2022-08-03T02:56:05;16.30;99.90
71142;DHT22;58808;59.366;17.970;2022-08-03T02:58:31;16.30;99.90
71142;DHT22;58808;59.366;17.970;2022-08-03T03:00:58;16.40;99.90
71142;DHT22;58808;59.366;17.970;2022-08-03T03:03:25;16.40;99.90
71142;DHT22;58808;59.366;17.970;2022-08-03T03:05:51;16.40;99.90
71142;DHT22;58808;59.366;17.970;2022-08-03T03:08:18;16.30;99.90
71142;DHT22;58808;59.366;17.970;2022-08-03T03:10:45;16.30;99.90
71142;DHT22;58808;59.366;17.970;2022-08-03T03:13:13;16.30;99.90
71142;DHT22;58808;59.366;17.970;2022-08-03T03:15:39;16.40;99.90
71142;DHT22;58808;59.366;17.970;2022-08-03T03:18:06;16.30;99.90
71142;DHT22;58808;59.366;17.970;2022-08-03T03:20:35;16.30;99.90
71142;DHT22;58808;59.366;17.970;2022-08-03T03:23:01;16.40;99.90
71142;DHT22;58808;59.366;17.970;2022-08-03T03:25:32;16.40;99.90
71142;DHT22;58808;59.366;17.970;2022-08-03T03:28:01;16.50;99.90
71142;DHT22;58808;59.366;17.970;2022-08-03T03:30:30;16.40;99.90
71142;DHT22;58808;59.366;17.970;2022-08-03T03:32:57;16.40;99.90
71142;DHT22;58808;59.366;17.970;2022-08-03T03:35:23;16.40;99.90
71142;DHT22;58808;59.366;17.970;2022-08-03T03:37:49;16.40;99.90
71142;DHT22;58808;59.366;17.970;2022-08-03T03:40:14;16.30;99.90
71142;DHT22;58808;59.366;17.970;2022-08-03T03:42:40;16.30;99.90
71142;DHT22;58808;59.366;17.970;2022-08-03T03:45:07;16.30;99.90
71142;DHT22;58808;59.366;17.970;2022-08-03T03:47:34;16.30;99.90
71142;DHT22;58808;59.366;17.970;2022-08-03T03:50:04;16.30;99.90
71142;DHT22;58808;59.366;17.970;2022-08-03T03:52:31;16.30;99.90
71142;DHT22;58808;59.366;17.970;2022-08-03T03:54:56;16.30;99.90
71142;DHT22;58808;59.366;17.970;2022-08-03T03:57:22;16.30;99.90
71142;DHT22;58808;59.366;17.970;2022-08-03T03:59:48;16.30;99.90
71142;DHT22;58808;59.366;17.970;2022-08-03T04:02:13;16.30;99.90
71142;DHT22;58808;59.366;17.970;2022-08-03T04:04:41;16.30;99.90
71142;DHT22;58808;59.366;17.970;2022-08-03T04:07:26;16.40;99.90
71142;DHT22;58808;59.366;17.970;2022-08-03T04:10:16;16.30;99.90
71142;DHT22;58808;59.366;17.970;2022-08-03T04:13:03;16.30;99.90
71142;DHT22;58808;59.366;17.970;2022-08-03T04:15:39;16.40;99.90
71142;DHT22;58808;59.366;17.970;2022-08-03T04:18:08;16.40;99.90
71142;DHT22;58808;59.366;17.970;2022-08-03T04:20:37;16.30;99.90
71142;DHT22;58808;59.366;17.970;2022-08-03T04:23:05;16.40;99.90
71142;DHT22;58808;59.366;17.970;2022-08-03T04:25:33;16.50;99.90
71142;DHT22;58808;59.366;17.970;2022-08-03T04:28:02;16.60;99.90
71142;DHT22;58808;59.366;17.970;2022-08-03T04:30:29;16.60;99.90
71142;DHT22;58808;59.366;17.970;2022-08-03T04:32:56;16.70;99.90
71142;DHT22;58808;59.366;17.970;2022-08-03T04:35:24;16.80;99.90
71142;DHT22;58808;59.366;17.970;2022-08-03T04:37:51;16.90;99.90
71142;DHT22;58808;59.366;17.970;2022-08-03T04:40:25;17.00;99.90
71142;DHT22;58808;59.366;17.970;2022-08-03T04:42:52;17.10;99.90
71142;DHT22;58808;59.366;17.970;2022-08-03T04:45:20;17.10;99.90
71142;DHT22;58808;59.366;17.970;2022-08-03T04:47:46;17.20;99.90
71142;DHT22;58808;59.366;17.970;2022-08-03T04:50:12;17.20;99.90
71142;DHT22;58808;59.366;17.970;2022-08-03T04:52:38;17.10;99.90
71142;DHT22;58808;59.366;17.970;2022-08-03T04:55:04;17.10;99.90
71142;DHT22;58808;59.366;17.970;2022-08-03T04:57:30;17.10;99.90
71142;DHT22;58808;59.366;17.970;2022-08-03T04:59:56;17.20;99.90
71142;DHT22;58808;59.366;17.970;2022-08-03T05:02:22;17.20;99.90
71142;DHT22;58808;59.366;17.970;2022-08-03T05:04:48;17.20;99.90
71142;DHT22;58808;59.366;17.970;2022-08-03T05:07:15;17.20;99.90
71142;DHT22;58808;59.366;17.970;2022-08-03T05:09:41;17.20;99.90
71142;DHT22;58808;59.366;17.970;2022-08-03T05:12:07;17.30;99.90
71142;DHT22;58808;59.366;17.970;2022-08-03T05:14:33;17.20;99.90
71142;DHT22;58808;59.366;17.970;2022-08-03T05:17:00;17.20;99.90
71142;DHT22;58808;59.366;17.970;2022-08-03T05:19:26;17.30;99.90
71142;DHT22;58808;59.366;17.970;2022-08-03T05:21:51;17.30;99.90
71142;DHT22;58808;59.366;17.970;2022-08-03T05:24:17;17.20;99.90
71142;DHT22;58808;59.366;17.970;2022-08-03T05:26:42;17.30;99.90
71142;DHT22;58808;59.366;17.970;2022-08-03T05:29:08;17.40;99.90
71142;DHT22;58808;59.366;17.970;2022-08-03T05:31:36;17.50;99.90
71142;DHT22;58808;59.366;17.970;2022-08-03T05:34:02;17.50;99.90
71142;DHT22;58808;59.366;17.970;2022-08-03T05:36:27;17.60;99.90
71142;DHT22;58808;59.366;17.970;2022-08-03T05:38:53;17.50;99.90
71142;DHT22;58808;59.366;17.970;2022-08-03T05:41:18;17.50;99.90
71142;DHT22;58808;59.366;17.970;2022-08-03T05:43:44;17.70;99.90
71142;DHT22;58808;59.366;17.970;2022-08-03T05:46:10;17.60;99.90
71142;DHT22;58808;59.366;17.970;2022-08-03T05:48:36;17.70;99.90
71142;DHT22;58808;59.366;17.970;2022-08-03T05:51:02;17.70;99.90
71142;DHT22;58808;59.366;17.970;2022-08-03T05:53:32;17.80;99.90
71142;DHT22;58808;59.366;17.970;2022-08-03T05:55:58;17.80;99.90
71142;DHT22;58808;59.366;17.970;2022-08-03T05:58:23;17.80;99.90
71142;DHT22;58808;59.366;17.970;2022-08-03T06:00:49;17.90;99.90
71142;DHT22;58808;59.366;17.970;2022-08-03T06:03:15;18.00;99.90
71142;DHT22;58808;59.366;17.970;2022-08-03T06:05:40;18.00;99.90
71142;DHT22;58808;59.366;17.970;2022-08-03T06:08:06;17.90;99.90
71142;DHT22;58808;59.366;17.970;2022-08-03T06:10:32;17.80;99.90
71142;DHT22;58808;59.366;17.970;2022-08-03T06:12:57;17.90;99.90
71142;DHT22;58808;59.366;17.970;2022-08-03T06:15:23;18.00;99.90
71142;DHT22;58808;59.366;17.970;2022-08-03T06:17:50;17.80;99.90
71142;DHT22;58808;59.366;17.970;2022-08-03T06:20:18;17.80;99.90
71142;DHT22;58808;59.366;17.970;2022-08-03T06:22:45;17.90;99.90
71142;DHT22;58808;59.366;17.970;2022-08-03T06:25:11;17.80;99.90
71142;DHT22;58808;59.366;17.970;2022-08-03T06:27:37;17.80;99.90
71142;DHT22;58808;59.366;17.970;2022-08-03T06:30:06;18.00;99.90
71142;DHT22;58808;59.366;17.970;2022-08-03T06:32:32;18.00;99.90
71142;DHT22;58808;59.366;17.970;2022-08-03T06:34:58;18.10;99.90
71142;DHT22;58808;59.366;17.970;2022-08-03T06:37:24;18.10;99.90
71142;DHT22;58808;59.366;17.970;2022-08-03T06:39:51;18.00;99.90
71142;DHT22;58808;59.366;17.970;2022-08-03T06:42:17;18.00;99.90
71142;DHT22;58808;59.366;17.970;2022-08-03T06:44:45;18.00;99.90
71142;DHT22;58808;59.366;17.970;2022-08-03T06:47:11;17.90;99.90
71142;DHT22;58808;59.366;17.970;2022-08-03T06:49:37;17.90;99.90
71142;DHT22;58808;59.366;17.970;2022-08-03T06:52:02;18.00;99.90
71142;DHT22;58808;59.366;17.970;2022-08-03T06:54:28;18.20;99.90
71142;DHT22;58808;59.366;17.970;2022-08-03T06:56:54;18.30;99.90
71142;DHT22;58808;59.366;17.970;2022-08-03T06:59:20;18.40;99.90
71142;DHT22;58808;59.366;17.970;2022-08-03T07:01:45;18.40;99.90
71142;DHT22;58808;59.366;17.970;2022-08-03T07:04:11;18.40;99.90
71142;DHT22;58808;59.366;17.970;2022-08-03T07:06:37;18.30;99.90
71142;DHT22;58808;59.366;17.970;2022-08-03T07:09:03;18.30;99.90
71142;DHT22;58808;59.366;17.970;2022-08-03T07:11:29;18.40;99.90
71142;DHT22;58808;59.366;17.970;2022-08-03T07:13:55;18.40;99.90
71142;DHT22;58808;59.366;17.970;2022-08-03T07:16:21;18.40;99.90
71142;DHT22;58808;59.366;17.970;2022-08-03T07:18:46;18.50;99.90
71142;DHT22;58808;59.366;17.970;2022-08-03T07:21:12;18.50;99.90
71142;DHT22;58808;59.366;17.970;2022-08-03T07:23:38;18.60;99.90
71142;DHT22;58808;59.366;17.970;2022-08-03T07:26:04;18.70;99.90
71142;DHT22;58808;59.366;17.970;2022-08-03T07:28:29;18.80;99.90
71142;DHT22;58808;59.366;17.970;2022-08-03T07:30:55;18.80;99.90
71142;DHT22;58808;59.366;17.970;2022-08-03T07:33:22;18.80;99.90
71142;DHT22;58808;59.366;17.970;2022-08-03T07:35:47;19.00;99.90
71142;DHT22;58808;59.366;17.970;2022-08-03T07:38:13;19.20;99.90
71142;DHT22;58808;59.366;17.970;2022-08-03T07:40:38;19.60;99.90
71142;DHT22;58808;59.366;17.970;2022-08-03T07:43:04;19.90;99.90
71142;DHT22;58808;59.366;17.970;2022-08-03T07:45:30;20.10;99.90
71142;DHT22;58808;59.366;17.970;2022-08-03T07:47:56;20.20;99.90
71142;DHT22;58808;59.366;17.970;2022-08-03T07:50:22;20.30;99.90
71142;DHT22;58808;59.366;17.970;2022-08-03T07:52:48;20.30;99.90
71142;DHT22;58808;59.366;17.970;2022-08-03T07:55:15;20.30;99.90
71142;DHT22;58808;59.366;17.970;2022-08-03T07:57:41;20.40;99.90
71142;DHT22;58808;59.366;17.970;2022-08-03T08:00:13;20.60;99.90
71142;DHT22;58808;59.366;17.970;2022-08-03T08:02:40;20.80;99.90
71142;DHT22;58808;59.366;17.970;2022-08-03T08:05:06;20.80;99.90
71142;DHT22;58808;59.366;17.970;2022-08-03T08:07:31;20.70;99.90
71142;DHT22;58808;59.366;17.970;2022-08-03T08:09:57;20.50;99.90
71142;DHT22;58808;59.366;17.970;2022-08-03T08:12:23;20.50;99.90
71142;DHT22;58808;59.366;17.970;2022-08-03T08:14:48;20.50;99.90
71142;DHT22;58808;59.366;17.970;2022-08-03T08:17:14;20.30;99.90
71142;DHT22;58808;59.366;17.970;2022-08-03T08:19:39;20.40;99.90
71142;DHT22;58808;59.366;17.970;2022-08-03T08:22:05;20.60;99.90
71142;DHT22;58808;59.366;17.970;2022-08-03T08:24:31;20.90;99.90
71142;DHT22;58808;59.366;17.970;2022-08-03T08:26:58;20.90;99.90
71142;DHT22;58808;59.366;17.970;2022-08-03T08:29:26;20.80;99.90
71142;DHT22;58808;59.366;17.970;2022-08-03T08:31:52;20.60;99.90
71142;DHT22;58808;59.366;17.970;2022-08-03T08:34:17;20.70;99.90
71142;DHT22;58808;59.366;17.970;2022-08-03T08:36:43;20.60;99.90
71142;DHT22;58808;59.366;17.970;2022-08-03T08:39:08;20.70;99.90
71142;DHT22;58808;59.366;17.970;2022-08-03T08:41:34;20.50;99.90
71142;DHT22;58808;59.366;17.970;2022-08-03T08:44:00;20.60;99.90
71142;DHT22;58808;59.366;17.970;2022-08-03T08:46:31;20.60;99.90
71142;DHT22;58808;59.366;17.970;2022-08-03T08:48:58;20.60;99.90
71142;DHT22;58808;59.366;17.970;2022-08-03T08:51:29;20.70;99.90
71142;DHT22;58808;59.366;17.970;2022-08-03T08:53:55;20.70;99.90
71142;DHT22;58808;59.366;17.970;2022-08-03T08:56:24;20.60;99.90
71142;DHT22;58808;59.366;17.970;2022-08-03T08:58:58;20.60;99.90
71142;DHT22;58808;59.366;17.970;2022-08-03T09:01:24;20.80;99.90
71142;DHT22;58808;59.366;17.970;2022-08-03T09:03:50;21.20;99.90
71142;DHT22;58808;59.366;17.970;2022-08-03T09:06:17;21.50;99.90
71142;DHT22;58808;59.366;17.970;2022-08-03T09:08:43;21.80;99.90
71142;DHT22;58808;59.366;17.970;2022-08-03T09:11:08;22.20;99.90
71142;DHT22;58808;59.366;17.970;2022-08-03T09:13:34;22.20;99.90
71142;DHT22;58808;59.366;17.970;2022-08-03T09:18:33;22.30;99.90
71142;DHT22;58808;59.366;17.970;2022-08-03T09:21:31;22.60;99.90
71142;DHT22;58808;59.366;17.970;2022-08-03T09:23:58;22.50;99.90
71142;DHT22;58808;59.366;17.970;2022-08-03T09:26:29;22.50;99.90
71142;DHT22;58808;59.366;17.970;2022-08-03T09:29:00;22.40;99.90
71142;DHT22;58808;59.366;17.970;2022-08-03T09:34:06;22.60;99.90
71142;DHT22;58808;59.366;17.970;2022-08-03T09:36:48;22.50;99.90
71142;DHT22;58808;59.366;17.970;2022-08-03T09:39:18;22.60;99.90
71142;DHT22;58808;59.366;17.970;2022-08-03T09:41:47;23.00;99.20
71142;DHT22;58808;59.366;17.970;2022-08-03T09:44:13;23.20;98.50
71142;DHT22;58808;59.366;17.970;2022-08-03T09:46:54;23.40;98.00
71142;DHT22;58808;59.366;17.970;2022-08-03T09:49:20;23.50;97.50
71142;DHT22;58808;59.366;17.970;2022-08-03T09:51:46;23.70;96.30
71142;DHT22;58808;59.366;17.970;2022-08-03T09:54:23;24.00;94.70
71142;DHT22;58808;59.366;17.970;2022-08-03T09:56:49;24.20;95.40
71142;DHT22;58808;59.366;17.970;2022-08-03T09:59:27;24.50;92.30
71142;DHT22;58808;59.366;17.970;2022-08-03T10:01:54;24.70;90.80
71142;DHT22;58808;59.366;17.970;2022-08-03T10:04:20;24.20;93.40
71142;DHT22;58808;59.366;17.970;2022-08-03T10:07:02;24.10;94.80
71142;DHT22;58808;59.366;17.970;2022-08-03T10:09:29;23.70;95.70
71142;DHT22;58808;59.366;17.970;2022-08-03T10:11:55;23.40;97.60
71142;DHT22;58808;59.366;17.970;2022-08-03T10:14:21;23.20;98.50
71142;DHT22;58808;59.366;17.970;2022-08-03T10:16:48;23.00;99.50
71142;DHT22;58808;59.366;17.970;2022-08-03T10:19:14;22.90;99.90
71142;DHT22;58808;59.366;17.970;2022-08-03T10:21:44;23.00;99.90
71142;DHT22;58808;59.366;17.970;2022-08-03T10:24:11;23.00;99.90
71142;DHT22;58808;59.366;17.970;2022-08-03T10:26:40;23.10;99.90
71142;DHT22;58808;59.366;17.970;2022-08-03T10:29:11;23.00;99.90
71142;DHT22;58808;59.366;17.970;2022-08-03T10:31:40;23.00;99.90
71142;DHT22;58808;59.366;17.970;2022-08-03T10:34:16;23.00;99.90
71142;DHT22;58808;59.366;17.970;2022-08-03T10:36:44;22.90;99.90
71142;DHT22;58808;59.366;17.970;2022-08-03T10:39:12;22.80;99.90
71142;DHT22;58808;59.366;17.970;2022-08-03T10:41:40;22.80;99.90
71142;DHT22;58808;59.366;17.970;2022-08-03T10:44:20;22.80;99.90
71142;DHT22;58808;59.366;17.970;2022-08-03T10:46:47;22.90;99.90
71142;DHT22;58808;59.366;17.970;2022-08-03T10:49:18;23.30;99.90
71142;DHT22;58808;59.366;17.970;2022-08-03T10:51:45;23.70;99.20
71142;DHT22;58808;59.366;17.970;2022-08-03T10:57:02;23.60;98.10
71142;DHT22;58808;59.366;17.970;2022-08-03T11:02:15;23.70;98.70
71142;DHT22;58808;59.366;17.970;2022-08-03T11:04:41;23.90;97.40
71142;DHT22;58808;59.366;17.970;2022-08-03T11:09:42;23.50;98.40
71142;DHT22;58808;59.366;17.970;2022-08-03T11:14:50;23.10;99.80
71142;DHT22;58808;59.366;17.970;2022-08-03T11:17:18;22.90;99.90
71142;DHT22;58808;59.366;17.970;2022-08-03T11:19:48;22.90;99.90
71142;DHT22;58808;59.366;17.970;2022-08-03T11:22:14;22.70;99.90
71142;DHT22;58808;59.366;17.970;2022-08-03T11:27:16;22.60;99.90
71142;DHT22;58808;59.366;17.970;2022-08-03T11:30:08;22.60;99.90
71142;DHT22;58808;59.366;17.970;2022-08-03T11:37:31;23.10;99.90
71142;DHT22;58808;59.366;17.970;2022-08-03T11:39:57;23.10;99.90
71142;DHT22;58808;59.366;17.970;2022-08-03T11:44:58;23.20;99.90
71142;DHT22;58808;59.366;17.970;2022-08-03T11:47:26;23.20;99.90
71142;DHT22;58808;59.366;17.970;2022-08-03T11:49:54;23.10;99.90
71142;DHT22;58808;59.366;17.970;2022-08-03T11:52:22;22.90;99.90
71142;DHT22;58808;59.366;17.970;2022-08-03T11:54:51;22.70;99.90
71142;DHT22;58808;59.366;17.970;2022-08-03T11:57:31;22.50;99.90
71142;DHT22;58808;59.366;17.970;2022-08-03T11:59:57;22.60;99.90
71142;DHT22;58808;59.366;17.970;2022-08-03T12:02:23;22.70;99.90
71142;DHT22;58808;59.366;17.970;2022-08-03T12:04:49;22.70;99.90
71142;DHT22;58808;59.366;17.970;2022-08-03T12:07:16;22.90;99.90
71142;DHT22;58808;59.366;17.970;2022-08-03T12:09:43;23.00;99.90
71142;DHT22;58808;59.366;17.970;2022-08-03T12:12:08;23.10;99.90
71142;DHT22;58808;59.366;17.970;2022-08-03T12:14:34;23.30;99.90
71142;DHT22;58808;59.366;17.970;2022-08-03T12:17:00;23.70;99.90
71142;DHT22;58808;59.366;17.970;2022-08-03T12:19:25;23.90;99.10
71142;DHT22;58808;59.366;17.970;2022-08-03T12:21:51;23.70;99.20
71142;DHT22;58808;59.366;17.970;2022-08-03T12:24:17;23.70;99.40
71142;DHT22;58808;59.366;17.970;2022-08-03T12:26:48;23.60;99.90
71142;DHT22;58808;59.366;17.970;2022-08-03T12:29:20;24.10;99.10
71142;DHT22;58808;59.366;17.970;2022-08-03T12:31:47;24.70;97.20
71142;DHT22;58808;59.366;17.970;2022-08-03T12:34:12;25.00;95.70
71142;DHT22;58808;59.366;17.970;2022-08-03T12:36:53;25.40;94.10
71142;DHT22;58808;59.366;17.970;2022-08-03T12:39:24;25.60;92.70
71142;DHT22;58808;59.366;17.970;2022-08-03T12:41:55;25.60;92.90
71142;DHT22;58808;59.366;17.970;2022-08-03T12:44:32;25.50;93.70
71142;DHT22;58808;59.366;17.970;2022-08-03T12:46:58;25.70;93.00
71142;DHT22;58808;59.366;17.970;2022-08-03T12:49:24;25.80;91.50
71142;DHT22;58808;59.366;17.970;2022-08-03T12:54:19;25.90;91.30
71142;DHT22;58808;59.366;17.970;2022-08-03T12:57:03;25.70;92.30
71142;DHT22;58808;59.366;17.970;2022-08-03T12:59:37;25.60;92.10
71142;DHT22;58808;59.366;17.970;2022-08-03T13:02:17;25.60;92.70
71142;DHT22;58808;59.366;17.970;2022-08-03T13:04:45;25.40;93.80
71142;DHT22;58808;59.366;17.970;2022-08-03T13:07:12;25.20;94.50
71142;DHT22;58808;59.366;17.970;2022-08-03T13:14:39;24.80;96.80
71142;DHT22;58808;59.366;17.970;2022-08-03T13:17:05;25.00;95.70
71142;DHT22;58808;59.366;17.970;2022-08-03T13:19:38;25.10;96.20
71142;DHT22;58808;59.366;17.970;2022-08-03T13:22:11;25.00;95.60
71142;DHT22;58808;59.366;17.970;2022-08-03T13:24:37;24.70;97.10
71142;DHT22;58808;59.366;17.970;2022-08-03T13:27:03;24.80;96.40
71142;DHT22;58808;59.366;17.970;2022-08-03T13:29:31;25.00;95.80
71142;DHT22;58808;59.366;17.970;2022-08-03T13:31:59;25.40;94.20
71142;DHT22;58808;59.366;17.970;2022-08-03T13:34:27;25.30;93.90
71142;DHT22;58808;59.366;17.970;2022-08-03T13:36:53;25.20;94.50
71142;DHT22;58808;59.366;17.970;2022-08-03T13:39:18;25.00;95.40
71142;DHT22;58808;59.366;17.970;2022-08-03T13:41:44;24.60;97.10
71142;DHT22;58808;59.366;17.970;2022-08-03T13:44:11;24.40;98.20
71142;DHT22;58808;59.366;17.970;2022-08-03T13:46:36;24.30;98.60
71142;DHT22;58808;59.366;17.970;2022-08-03T13:49:02;24.10;99.50
71142;DHT22;58808;59.366;17.970;2022-08-03T13:51:28;24.20;99.10
71142;DHT22;58808;59.366;17.970;2022-08-03T13:53:53;24.10;99.70
71142;DHT22;58808;59.366;17.970;2022-08-03T13:56:19;24.00;99.90
71142;DHT22;58808;59.366;17.970;2022-08-03T13:58:45;23.90;99.90
71142;DHT22;58808;59.366;17.970;2022-08-03T14:01:13;23.90;99.90
71142;DHT22;58808;59.366;17.970;2022-08-03T14:03:39;23.90;99.90
71142;DHT22;58808;59.366;17.970;2022-08-03T14:06:04;23.80;99.90
71142;DHT22;58808;59.366;17.970;2022-08-03T14:08:30;23.80;99.90
71142;DHT22;58808;59.366;17.970;2022-08-03T14:10:56;23.80;99.90
71142;DHT22;58808;59.366;17.970;2022-08-03T14:13:21;23.90;99.90
71142;DHT22;58808;59.366;17.970;2022-08-03T14:15:49;23.90;99.90
71142;DHT22;58808;59.366;17.970;2022-08-03T14:18:19;23.80;99.90
71142;DHT22;58808;59.366;17.970;2022-08-03T14:20:45;23.80;99.90
71142;DHT22;58808;59.366;17.970;2022-08-03T14:23:11;23.80;99.90
71142;DHT22;58808;59.366;17.970;2022-08-03T14:25:37;23.70;99.90
71142;DHT22;58808;59.366;17.970;2022-08-03T14:28:03;23.70;99.90
71142;DHT22;58808;59.366;17.970;2022-08-03T14:30:29;23.80;99.90
71142;DHT22;58808;59.366;17.970;2022-08-03T14:32:55;23.90;99.90
71142;DHT22;58808;59.366;17.970;2022-08-03T14:35:21;24.00;99.90
71142;DHT22;58808;59.366;17.970;2022-08-03T14:37:49;24.20;99.90
71142;DHT22;58808;59.366;17.970;2022-08-03T14:40:16;24.30;99.90
71142;DHT22;58808;59.366;17.970;2022-08-03T14:42:42;24.40;99.90
71142;DHT22;58808;59.366;17.970;2022-08-03T14:45:10;24.50;99.90
71142;DHT22;58808;59.366;17.970;2022-08-03T14:47:38;24.40;99.90
71142;DHT22;58808;59.366;17.970;2022-08-03T14:50:04;24.40;99.90
71142;DHT22;58808;59.366;17.970;2022-08-03T14:52:30;24.80;99.90
71142;DHT22;58808;59.366;17.970;2022-08-03T14:54:57;25.10;99.40
71142;DHT22;58808;59.366;17.970;2022-08-03T14:57:23;25.30;98.40
71142;DHT22;58808;59.366;17.970;2022-08-03T14:59:48;25.40;97.90
71142;DHT22;58808;59.366;17.970;2022-08-03T15:02:17;25.30;97.90
71142;DHT22;58808;59.366;17.970;2022-08-03T15:04:45;24.80;98.90
71142;DHT22;58808;59.366;17.970;2022-08-03T15:07:11;24.60;99.30
71142;DHT22;58808;59.366;17.970;2022-08-03T15:09:36;24.40;99.90
71142;DHT22;58808;59.366;17.970;2022-08-03T15:12:04;24.40;99.90
71142;DHT22;58808;59.366;17.970;2022-08-03T15:14:30;24.40;99.90
71142;DHT22;58808;59.366;17.970;2022-08-03T15:16:55;24.30;99.90
71142;DHT22;58808;59.366;17.970;2022-08-03T15:19:21;24.40;99.90
71142;DHT22;58808;59.366;17.970;2022-08-03T15:21:47;24.60;99.10
71142;DHT22;58808;59.366;17.970;2022-08-03T15:24:12;24.80;98.40
71142;DHT22;58808;59.366;17.970;2022-08-03T15:26:38;25.10;97.60
71142;DHT22;58808;59.366;17.970;2022-08-03T15:29:03;25.10;97.60
71142;DHT22;58808;59.366;17.970;2022-08-03T15:31:29;24.90;96.50
71142;DHT22;58808;59.366;17.970;2022-08-03T15:33:55;24.70;95.90
71142;DHT22;58808;59.366;17.970;2022-08-03T15:36:20;24.40;96.70
71142;DHT22;58808;59.366;17.970;2022-08-03T15:38:46;24.20;97.70
71142;DHT22;58808;59.366;17.970;2022-08-03T15:41:15;24.10;97.90
71142;DHT22;58808;59.366;17.970;2022-08-03T15:43:40;23.90;98.30
71142;DHT22;58808;59.366;17.970;2022-08-03T15:46:06;23.80;98.90
71142;DHT22;58808;59.366;17.970;2022-08-03T15:48:32;23.70;98.80
71142;DHT22;58808;59.366;17.970;2022-08-03T15:50:58;23.70;98.60
71142;DHT22;58808;59.366;17.970;2022-08-03T15:53:24;23.60;98.80
71142;DHT22;58808;59.366;17.970;2022-08-03T15:55:50;23.60;99.20
71142;DHT22;58808;59.366;17.970;2022-08-03T15:58:15;23.60;98.90